Station: Leigh Creek

  Atmospheric Gas Attenuation - ITU Rec 676-11   --------------- db/100km ---------------
Date Time Temp RH % AH g/m3 Dew Point Wind Direction Speed kph Gust kph Barometer mB Rainfall Since 9am 24GHz 47GHz 76GHz 122GHz 134GHz 241GHz
13 07:50 3.6 99 6.13 3.5 7 9 1026 0 14.7 25.2 35.0 91.4 77.5 263.6
13 07:40 2.8 99 5.81 2.7 9 9 1025.9 0 14.1 24.9 34.0 88.7 73.8 250.7
13 07:30 2.3 98 5.56 2 6 7 1026 0 13.5 24.6 33.2 86.4 70.8 240.1
13 07:20 2.2 98 5.53 1.9 7 7 1025.8 0 13.5 24.6 33.1 86.2 70.5 238.9
13 07:10 2.1 97 5.43 1.7 7 9 1025.8 0 13.3 24.5 32.7 85.2 69.2 234.4
13 07:00 2.8 98 5.75 2.5 7 9 1025.9 0 13.9 24.8 33.8 88.0 73.0 247.7
13 06:50 3.2 98 5.91 2.9 7 9 1025.6 0 14.3 24.9 34.2 89.3 74.8 254.2
13 06:40 3 97 5.77 2.6 7 7 1025.5 0 14.0 24.8 33.7 88.0 73.0 248.0
13 06:30 3.2 97 5.85 2.8 7 9 1025.6 0 14.1 24.8 34.0 88.6 74.0 251.2
13 06:20 3.3 97 5.89 2.9 6 7 1025.3 0 14.2 24.9 34.1 88.9 74.4 252.8
13 06:10 5.7 99 7.05 5.6 7 7 1025.2 0 16.6 26.1 37.9 99.1 88.0 300.9
13 06:00 5.8 99 7.1 5.7 11 13 1025.4 0 16.7 26.2 38.1 99.6 88.6 303.0
13 05:50 5.1 99 6.78 5 9 11 1025.3 0 16.1 25.9 37.0 96.8 84.9 289.9
13 05:40 4.3 99 6.43 4.2 7 9 1025.3 0 15.3 25.5 35.9 93.8 80.9 275.7
13 05:30 4.1 99 6.34 4 7 11 1025.4 0 15.2 25.4 35.6 93.1 79.9 272.0
13 05:20 5.4 99 6.91 5.3 9 11 1025.1 0 16.3 26.0 37.4 97.9 86.4 295.1
13 05:10 5.7 99 7.05 5.6 11 13 1024.7 0 16.6 26.1 37.9 99.1 88.0 300.8
13 04:50 5.2 99 6.82 5.1 9 9 1024.7 0 16.1 25.9 37.1 97.1 85.3 291.4
13 04:40 5.6 99 7 5.5 7 9 1024.7 0 16.5 26.1 37.7 98.6 87.4 298.7
13 04:30 5.7 99 7.05 5.6 9 13 1024.9 0 16.6 26.1 37.9 99.1 88.0 300.8
13 04:20 5.9 99 7.14 5.8 11 13 1024.4 0 16.8 26.2 38.2 99.8 89.0 304.3
13 04:10 5.7 99 7.05 5.6 7 9 1024.4 0 16.6 26.1 37.9 99.0 88.0 300.7
13 04:00 5.6 99 7 5.5 11 15 1024.6 0 16.5 26.1 37.7 98.6 87.4 298.7
13 03:50 5.8 99 7.1 5.7 9 11 1024.3 0 16.7 26.2 38.0 99.5 88.5 302.7
13 03:40 5.8 99 7.1 5.7 9 11 1024.3 0 16.7 26.2 38.0 99.5 88.5 302.7
13 03:30 5.9 99 7.14 5.8 11 17 1024.6 0 16.8 26.2 38.2 99.8 89.0 304.4
13 03:20 6.1 98 7.16 5.8 15 17 1024.2 0 16.8 26.2 38.1 99.8 89.0 304.5
13 03:10 6.3 98 7.26 6 15 19 1024.2 0 17.0 26.3 38.5 100.6 90.2 308.6
13 03:00 6.3 98 7.26 6 17 20 1024.5 0 17.0 26.3 38.5 100.7 90.2 308.7
13 02:50 6.4 97 7.23 6 19 20 1024.1 0 17.0 26.2 38.3 100.2 89.7 306.7
13 02:40 6.5 97 7.28 6.1 15 15 1024 0 17.1 26.3 38.4 100.6 90.2 308.8
13 02:30 6.3 96 7.11 5.7 15 19 1024.1 0 16.7 26.0 37.8 98.9 88.1 301.2
13 02:20 6.5 96 7.2 5.9 15 17 1024 0 16.9 26.1 38.1 99.7 89.1 304.8
13 02:10 6.6 96 7.25 6 15 17 1024 0 17.0 26.2 38.3 100.1 89.7 306.9
13 02:00 6.7 95 7.22 6 17 20 1024.2 0 16.9 26.1 38.1 99.7 89.2 305.1
13 01:50 6.8 95 7.27 6.1 19 20 1024 0 17.0 26.2 38.3 100.1 89.7 307.1
13 01:40 6.8 94 7.19 5.9 17 17 1024.1 0 16.9 26.0 37.9 99.2 88.6 303.2
13 01:30 6.8 93 7.12 5.7 17 19 1024.2 0 16.7 25.9 37.6 98.4 87.7 299.8
13 01:20 6.9 93 7.16 5.8 17 17 1024.1 0 16.8 25.9 37.7 98.7 88.1 301.4
13 01:10 7 93 7.21 5.9 19 20 1024.1 0 16.9 26.0 37.9 99.2 88.7 303.4
13 01:00 7.1 93 7.26 6 19 20 1024.4 0 17.0 26.1 38.1 99.6 89.3 305.5
13 00:50 6.9 92 7.09 5.7 17 19 1024.2 0 16.7 25.8 37.5 98.0 87.1 298.0
13 00:40 7 91 7.05 5.6 15 17 1024.3 0 16.6 25.7 37.2 97.4 86.5 295.7
13 00:30 7.3 90 7.11 5.8 15 17 1024.5 0 16.7 25.8 37.4 97.7 87.0 297.5
13 00:20 7.4 90 7.16 5.9 15 15 1024.1 0 16.8 25.8 37.5 98.1 87.5 299.4
13 00:10 7.6 90 7.25 6.1 17 17 1024.1 0 17.0 25.9 37.8 98.9 88.5 303.0
13 00:00 7.4 90 7.16 5.9 15 19 1024.5 0 16.8 25.8 37.5 98.1 87.6 299.5
12 23:50 7.2 89 6.99 5.5 13 15 1024 0 16.4 25.6 36.9 96.4 85.4 292.0
12 23:40 7.2 89 6.99 5.5 15 15 1023.9 0 16.4 25.6 36.9 96.4 85.4 292.0
12 23:30 7.3 88 6.96 5.4 15 17 1024 0 16.4 25.5 36.7 96.0 84.9 290.2
12 23:20 7.4 88 7 5.5 13 15 1023.8 0 16.4 25.5 36.8 96.3 85.3 291.7
12 23:10 7.6 88 7.09 5.7 15 15 1023.8 0 16.6 25.6 37.1 97.0 86.3 295.2
12 23:00 7.7 88 7.14 5.8 11 15 1024 0 16.7 25.7 37.3 97.5 86.9 297.3
12 22:50 7.9 88 7.23 6 13 13 1023.9 0 16.9 25.8 37.6 98.2 87.9 300.8
12 22:40 7.6 88 7.09 5.7 11 13 1024 0 16.6 25.6 37.1 97.1 86.3 295.3
12 22:30 7.8 89 7.27 6.1 11 13 1024.2 0 17.0 25.9 37.8 98.8 88.6 303.2
12 22:20 7.9 90 7.4 6.4 9 11 1024 0 17.3 26.0 38.3 100.1 90.3 309.0
12 22:10 7.1 89 6.94 5.4 9 9 1024.1 0 16.3 25.5 36.7 96.0 84.8 290.0
12 22:00 7.5 89 7.13 5.8 11 15 1024.2 0 16.7 25.7 37.3 97.6 87.0 297.6
12 21:50 7.2 88 6.91 5.3 13 15 1023.9 0 16.3 25.4 36.6 95.5 84.3 288.1
12 21:40 7.7 87 7.06 5.7 13 13 1023.8 0 16.6 25.5 36.9 96.6 85.8 293.4
12 21:30 7.8 87 7.1 5.8 7 9 1024 0 16.6 25.6 37.1 96.9 86.3 295.0
12 21:20 7.7 86 6.98 5.5 7 9 1023.7 0 16.4 25.4 36.6 95.7 84.7 289.6
12 21:10 8.1 86 7.16 5.9 7 7 1023.6 0 16.8 25.6 37.2 97.2 86.7 296.6
12 21:00 8.2 85 7.12 5.8 11 13 1023.7 0 16.7 25.5 36.9 96.6 86.1 294.4
12 20:50 8.3 85 7.17 5.9 13 13 1023.5 0 16.8 25.5 37.1 97.0 86.6 296.3
12 20:40 8.3 84 7.08 5.8 13 15 1023.4 0 16.6 25.4 36.7 96.0 85.4 292.0
12 20:30 8.4 84 7.13 5.9 15 17 1023.7 0 16.7 25.4 36.9 96.5 86.0 294.1
12 20:20 8.6 83 7.13 5.9 11 13 1023.4 0 16.7 25.4 36.8 96.2 85.7 293.3
12 20:10 8.7 83 7.18 6 9 9 1023.4 0 16.8 25.4 36.9 96.6 86.3 295.3
12 20:00 8.7 82 7.09 5.8 13 13 1023.5 0 16.6 25.3 36.6 95.7 85.1 291.0
12 19:50 9.1 80 7.1 5.8 11 13 1023.3 0 16.6 25.2 36.4 95.3 84.8 290.0
12 19:40 9.6 79 7.24 6.1 11 11 1023.4 0 16.9 25.3 36.8 96.2 86.1 294.7
12 19:30 9.9 78 7.28 6.3 11 15 1023.6 0 16.9 25.3 36.8 96.3 86.3 295.5
12 19:20 10.1 77 7.28 6.3 13 15 1023.2 0 16.9 25.2 36.7 96.0 86.1 294.7
12 19:10 10.6 75 7.32 6.4 15 15 1023 0 17.0 25.1 36.6 95.8 86.0 294.6
12 19:00 10.8 75 7.41 6.6 13 17 1023.2 0 17.2 25.2 36.9 96.5 87.0 298.1
12 18:50 10.8 74 7.32 6.4 13 13 1022.9 0 17.0 25.0 36.5 95.5 85.8 293.8
12 18:40 10.8 75 7.41 6.6 13 15 1022.9 0 17.2 25.2 36.9 96.5 87.0 298.0
12 18:30 10.8 74 7.32 6.4 13 17 1023 0 17.0 25.0 36.5 95.5 85.8 293.9
12 18:20 10.8 73 7.22 6.2 15 17 1022.7 0 16.8 24.9 36.1 94.4 84.5 289.2
12 18:10 10.7 73 7.17 6.1 15 17 1022.6 0 16.7 24.8 36.0 94.0 83.9 287.2
12 18:00 10.6 73 7.13 6 13 15 1022.7 0 16.6 24.8 35.8 93.7 83.5 285.8
12 17:50 10.7 73 7.17 6.1 11 13 1022.4 0 16.7 24.8 35.9 94.0 83.9 287.2
12 17:40 10.8 72 7.12 6 13 15 1022.3 0 16.6 24.7 35.7 93.3 83.1 284.5
12 17:30 10.9 70 6.96 5.7 15 19 1022.3 0 16.2 24.4 35.0 91.5 80.9 276.8
12 17:20 11 69 6.91 5.5 17 20 1022 0 16.1 24.3 34.8 90.9 80.2 274.1
12 17:10 11.3 67 6.84 5.4 22 24 1021.8 0 15.9 24.1 34.4 89.8 78.9 269.9
12 17:00 11.6 67 6.96 5.7 22 30 1022 0 16.2 24.2 34.7 90.7 80.2 274.3
12 16:50 11.6 66 6.86 5.5 24 26 1021.7 0 16.0 24.0 34.3 89.6 78.9 269.7
12 16:40 11.8 65 6.84 5.4 24 28 1021.7 0 15.9 24.0 34.1 89.2 78.4 268.2
12 16:30 12.1 64 6.86 5.5 22 28 1021.9 0 15.9 23.9 34.1 89.1 78.4 268.1
12 16:20 11.5 64 6.61 4.9 24 28 1021.7 0 15.4 23.7 33.4 87.2 75.8 258.9
12 16:10 11.7 62 6.49 4.7 24 28 1021.7 0 15.2 23.4 32.8 85.7 74.1 252.9
12 16:00 11.8 62 6.53 4.8 20 32 1021.8 0 15.3 23.5 33.0 86.0 74.5 254.4
12 15:50 12.5 62 6.82 5.4 19 22 1021.5 0 15.8 23.7 33.8 88.2 77.5 264.9
12 15:40 12.5 64 7.04 5.9 20 24 1021.4 0 16.3 24.1 34.6 90.4 80.3 274.7
12 15:30 11.9 63 6.67 5.1 26 33 1021.5 0 15.6 23.7 33.4 87.3 76.2 260.2
12 15:20 12.1 66 7.08 5.9 24 30 1021.3 0 16.4 24.2 34.9 91.3 81.2 277.8
12 15:10 11.7 68 7.11 6 30 35 1021.2 0 16.5 24.4 35.2 92.1 82.0 280.6

Last Refresh: 13-Jul-2020 08:00:22

Most of the information presented on this site is sourced from the Bureau of Meteorology.  Copyright in all material sourced from the Bureau of Meteorology resides with the Commonwealth of Australia.